Time;durP1;ratioP1;P1;durP2;ratioP2;P2;SDS_P1;SDS_P2;PMS_P1;PMS_P2;Temp;Humidity;BMP_temperature;BMP_pressure;BME280_temperature;BME280_humidity;BME280_pressure;Samples;Min_cycle;Max_cycle;Signal;HPM_P1;HPM_P2
2023/03/27 00:00:37;;;;;;;15.20;13.30;;;;;;;8.07;100.00;97326.74;109630;1250;58295;-71
2023/03/27 00:03:19;;;;;;;16.70;14.50;;;;;;;8.05;100.00;97325.51;109607;1250;61044;-71
2023/03/27 00:05:45;;;;;;;17.70;15.30;;;;;;;8.02;100.00;97325.77;109600;1250;64910;-71
2023/03/27 00:08:15;;;;;;;16.10;12.70;;;;;;;8.00;100.00;97328.91;109602;1250;58193;-71
2023/03/27 00:10:41;;;;;;;17.70;13.40;;;;;;;7.98;100.00;97327.14;109343;1251;58291;-71
2023/03/27 00:13:08;;;;;;;18.00;15.40;;;;;;;7.97;100.00;97326.55;109605;1250;58568;-71
2023/03/27 00:15:36;;;;;;;18.70;14.20;;;;;;;7.97;100.00;97330.45;109554;1251;60712;-71
2023/03/27 00:18:02;;;;;;;16.20;14.50;;;;;;;7.95;100.00;97332.22;109586;1250;64916;-71
2023/03/27 00:20:36;;;;;;;19.30;15.40;;;;;;;7.94;100.00;97331.02;109600;1250;58183;-71
2023/03/27 00:23:03;;;;;;;18.60;16.50;;;;;;;7.95;100.00;97328.98;109456;1251;58344;-71
2023/03/27 00:25:29;;;;;;;17.00;14.20;;;;;;;7.96;100.00;97329.81;109610;1250;66194;-71
2023/03/27 00:27:57;;;;;;;16.80;15.20;;;;;;;7.94;100.00;97322.87;109613;1250;58230;-71
2023/03/27 00:30:27;;;;;;;16.40;14.60;;;;;;;7.93;100.00;97315.92;109583;1250;64850;-71
2023/03/27 00:32:55;;;;;;;16.10;14.40;;;;;;;7.93;100.00;97309.94;109583;1250;58211;-71
2023/03/27 00:35:23;;;;;;;16.20;14.50;;;;;;;7.93;100.00;97311.48;109593;1250;58265;-71
2023/03/27 00:37:49;;;;;;;17.20;15.00;;;;;;;7.94;100.00;97313.88;109569;1250;66280;-71
2023/03/27 00:40:16;;;;;;;17.20;15.50;;;;;;;7.94;100.00;97314.66;109616;1250;58211;-71
2023/03/27 00:42:43;;;;;;;18.60;15.80;;;;;;;7.93;100.00;97313.61;109597;1250;65047;-71
2023/03/27 00:45:21;;;;;;;17.00;15.30;;;;;;;7.94;100.00;97314.24;109600;1251;58137;-71
2023/03/27 00:47:55;;;;;;;19.50;17.40;;;;;;;7.93;100.00;97312.73;109626;1250;58211;-71
2023/03/27 00:50:31;;;;;;;17.00;15.20;;;;;;;7.93;100.00;97314.71;109606;1250;64954;-71
2023/03/27 00:53:14;;;;;;;16.20;14.40;;;;;;;7.92;100.00;97307.00;109626;1250;60823;-71
2023/03/27 00:55:45;;;;;;;13.60;11.10;;;;;;;7.91;100.00;97302.60;109599;1251;63745;-71
2023/03/27 00:58:18;;;;;;;14.70;11.10;;;;;;;7.90;100.00;97301.08;109290;1250;58548;-71
2023/03/27 01:00:48;;;;;;;13.00;10.80;;;;;;;7.90;100.00;97297.96;109580;1250;58487;-71
2023/03/27 01:03:15;;;;;;;15.90;11.00;;;;;;;7.87;100.00;97290.77;109390;1250;66070;-71
2023/03/27 01:05:41;;;;;;;13.30;11.40;;;;;;;7.84;100.00;97286.91;109597;1250;58677;-71
2023/03/27 01:08:07;;;;;;;15.20;10.70;;;;;;;7.83;100.00;97279.77;109618;1250;58296;-71
2023/03/27 01:10:48;;;;;;;11.80;10.00;;;;;;;7.82;100.00;97277.94;109613;1250;58592;-71
2023/03/27 01:13:35;;;;;;;14.20;10.00;;;;;;;7.80;100.00;97274.35;109595;1250;58115;-71
2023/03/27 01:16:10;;;;;;;12.70;10.20;;;;;;;7.79;100.00;97275.55;109612;1250;64864;-72
2023/03/27 01:19:13;;;;;;;13.00;9.20;;;;;;;7.78;100.00;97278.97;109534;1251;61214;-72
2023/03/27 01:22:08;;;;;;;15.80;12.90;;;;;;;7.78;100.00;97276.17;109029;1257;62438;-72
2023/03/27 01:24:40;;;;;;;18.30;13.50;;;;;;;7.76;100.00;97270.25;108752;1263;58407;-72
2023/03/27 01:27:10;;;;;;;19.70;15.00;;;;;;;7.77;100.00;97264.89;108766;1262;58124;-70
2023/03/27 01:30:02;;;;;;;17.90;14.40;;;;;;;7.78;100.00;97261.27;108765;1262;66747;-69
2023/03/27 01:32:59;;;;;;;21.30;15.80;;;;;;;7.79;100.00;97250.08;108764;1263;60060;-72
2023/03/27 01:35:57;;;;;;;22.20;16.70;;;;;;;7.79;100.00;97243.52;108794;1262;64763;-72
2023/03/27 01:38:48;;;;;;;20.00;16.00;;;;;;;7.78;100.00;97243.04;108208;1270;58305;-70
2023/03/27 01:41:32;;;;;;;18.30;15.60;;;;;;;7.78;100.00;97243.96;108210;1270;58225;-71
2023/03/27 01:44:16;;;;;;;17.80;14.10;;;;;;;7.76;100.00;97244.29;108200;1269;66498;-70
2023/03/27 01:46:55;;;;;;;16.00;12.30;;;;;;;7.74;100.00;97245.52;108092;1270;59896;-70
2023/03/27 01:49:38;;;;;;;15.40;12.10;;;;;;;7.70;100.00;97247.45;108193;1270;65011;-70
2023/03/27 01:52:11;;;;;;;18.40;12.70;;;;;;;7.64;100.00;97244.95;108120;1270;58228;-71
2023/03/27 01:54:45;;;;;;;14.60;11.60;;;;;;;7.60;100.00;97239.45;108198;1270;58243;-71
2023/03/27 01:57:37;;;;;;;19.50;13.00;;;;;;;7.60;100.00;97234.80;108225;1270;66026;-71
2023/03/27 02:00:43;;;;;;;18.10;11.80;;;;;;;7.61;100.00;97230.19;108122;1270;61386;-71
2023/03/27 02:03:21;;;;;;;18.90;12.90;;;;;;;7.58;100.00;97230.05;108534;1266;64109;-71
2023/03/27 02:05:55;;;;;;;20.30;12.50;;;;;;;7.55;100.00;97225.92;108570;1266;58313;-71
2023/03/27 02:08:23;;;;;;;14.10;10.90;;;;;;;7.50;100.00;97224.16;108532;1265;58332;-71
2023/03/27 02:10:54;;;;;;;16.50;12.60;;;;;;;7.46;100.00;97219.39;108573;1268;66209;-71
2023/03/27 02:13:27;;;;;;;17.00;12.50;;;;;;;7.45;100.00;97214.31;108555;1267;59925;-73
2023/03/27 02:15:57;;;;;;;18.70;11.30;;;;;;;7.46;100.00;97214.92;108714;1259;63943;-71
2023/03/27 02:18:30;;;;;;;17.10;11.60;;;;;;;7.46;100.00;97219.23;108880;1259;58270;-71
2023/03/27 02:20:56;;;;;;;17.80;11.50;;;;;;;7.45;100.00;97217.32;108936;1259;58406;-71
2023/03/27 02:23:22;;;;;;;18.90;10.70;;;;;;;7.45;100.00;97220.38;108949;1259;58269;-71
2023/03/27 02:25:50;;;;;;;19.40;10.20;;;;;;;7.44;100.00;97219.86;108962;1259;58308;-71
2023/03/27 02:28:35;;;;;;;14.10;10.90;;;;;;;7.42;100.00;97218.31;108942;1259;64768;-70
2023/03/27 02:31:10;;;;;;;17.00;11.20;;;;;;;7.38;100.00;97215.25;108901;1263;58275;-71
2023/03/27 02:33:40;;;;;;;18.60;13.10;;;;;;;7.36;100.00;97218.44;108919;1259;58390;-70
2023/03/27 02:36:29;;;;;;;20.70;14.40;;;;;;;7.34;100.00;97220.95;108980;1259;66566;-70
2023/03/27 02:39:17;;;;;;;24.00;16.10;;;;;;;7.30;100.00;97224.44;109594;1251;60822;-70
2023/03/27 02:42:07;;;;;;;26.00;20.80;;;;;;;7.27;100.00;97227.86;109617;1251;64789;-71
2023/03/27 02:45:01;;;;;;;30.50;24.10;;;;;;;7.25;100.00;97231.48;109548;1251;58239;-70
2023/03/27 02:48:06;;;;;;;36.30;29.10;;;;;;;7.25;100.00;97233.81;109618;1251;58143;-71
2023/03/27 02:50:52;;;;;;;39.40;31.20;;;;;;;7.25;100.00;97234.55;109113;1257;65995;-72
2023/03/27 02:53:22;;;;;;;36.80;30.40;;;;;;;7.24;100.00;97237.83;109106;1257;59701;-71
2023/03/27 02:55:58;;;;;;;37.80;30.70;;;;;;;7.23;100.00;97239.62;109123;1257;65135;-71
2023/03/27 02:58:31;;;;;;;36.50;29.90;;;;;;;7.23;100.00;97245.09;108977;1257;58213;-72
2023/03/27 03:00:59;;;;;;;36.20;29.40;;;;;;;7.23;100.00;97244.38;109092;1257;58635;-72
2023/03/27 03:03:38;;;;;;;43.70;32.50;;;;;;;7.23;100.00;97246.34;109090;1256;65885;-71
2023/03/27 03:06:05;;;;;;;37.60;29.70;;;;;;;7.25;100.00;97248.79;109148;1257;60938;-71
2023/03/27 03:08:37;;;;;;;37.00;30.10;;;;;;;7.29;100.00;97249.96;109108;1257;64174;-71
2023/03/27 03:11:10;;;;;;;30.70;26.70;;;;;;;7.32;100.00;97252.34;109026;1257;58528;-72
2023/03/27 03:13:37;;;;;;;35.50;27.60;;;;;;;7.34;100.00;97250.77;109106;1257;58270;-71
2023/03/27 03:16:03;;;;;;;37.20;29.90;;;;;;;7.34;100.00;97253.20;109107;1257;58489;-71
2023/03/27 03:18:29;;;;;;;34.40;29.30;;;;;;;7.35;100.00;97250.70;109133;1256;59866;-72
2023/03/27 03:20:56;;;;;;;37.80;29.80;;;;;;;7.33;100.00;97252.79;109100;1257;58281;-71
2023/03/27 03:23:22;;;;;;;34.50;29.80;;;;;;;7.32;100.00;97250.45;109143;1256;58261;-71
2023/03/27 03:25:51;;;;;;;33.50;27.20;;;;;;;7.31;100.00;97247.53;109614;1250;58267;-70
2023/03/27 03:28:18;;;;;;;29.80;26.50;;;;;;;7.28;100.00;97249.48;109593;1250;66173;-71
2023/03/27 03:30:49;;;;;;;33.80;26.90;;;;;;;7.28;100.00;97250.41;109593;1251;59934;-71
2023/03/27 03:33:17;;;;;;;30.60;26.30;;;;;;;7.29;100.00;97247.34;109578;1251;63707;-70
2023/03/27 03:35:45;;;;;;;29.50;25.70;;;;;;;7.30;100.00;97246.50;109560;1250;58296;-70
2023/03/27 03:38:11;;;;;;;26.60;23.40;;;;;;;7.32;100.00;97246.52;109594;1250;58359;-71
2023/03/27 03:40:38;;;;;;;24.20;21.10;;;;;;;7.35;100.00;97245.43;109600;1251;58217;-71
2023/03/27 03:43:04;;;;;;;24.30;20.80;;;;;;;7.35;100.00;97249.98;109614;1251;58303;-71
2023/03/27 03:45:30;;;;;;;23.70;20.90;;;;;;;7.36;100.00;97250.32;109561;1251;58679;-71
2023/03/27 03:47:56;;;;;;;24.70;19.60;;;;;;;7.37;100.00;97248.08;109515;1251;58190;-71
2023/03/27 03:50:22;;;;;;;24.20;19.00;;;;;;;7.39;100.00;97248.08;109634;1254;58221;-71
2023/03/27 03:52:48;;;;;;;24.50;19.40;;;;;;;7.40;100.00;97249.77;109611;1250;58297;-70
2023/03/27 03:55:15;;;;;;;21.50;19.10;;;;;;;7.40;100.00;97251.15;109569;1251;58195;-71
2023/03/27 03:57:45;;;;;;;22.50;19.00;;;;;;;7.41;100.00;97253.38;109578;1250;58103;-71
2023/03/27 04:00:13;;;;;;;23.00;19.40;;;;;;;7.42;100.00;97253.27;109627;1250;58120;-70
2023/03/27 04:02:40;;;;;;;24.50;22.00;;;;;;;7.43;100.00;97255.13;109480;1251;58278;-70
2023/03/27 04:05:08;;;;;;;23.70;21.10;;;;;;;7.44;100.00;97254.16;109601;1251;65096;-71
2023/03/27 04:07:34;;;;;;;22.60;18.80;;;;;;;7.45;100.00;97253.39;109552;1251;61009;-71
2023/03/27 04:10:02;;;;;;;24.60;20.60;;;;;;;7.44;100.00;97249.27;109598;1251;63829;-71
2023/03/27 04:12:29;;;;;;;24.00;19.50;;;;;;;7.41;100.00;97245.95;109504;1250;58150;-71
2023/03/27 04:14:55;;;;;;;25.00;20.60;;;;;;;7.39;100.00;97241.73;109653;1251;58337;-71
2023/03/27 04:17:25;;;;;;;31.30;24.00;;;;;;;7.37;100.00;97242.60;109535;1253;59096;-71
2023/03/27 04:19:53;;;;;;;24.40;20.40;;;;;;;7.35;100.00;97245.91;109534;1252;59792;-71
2023/03/27 04:22:21;;;;;;;25.70;21.80;;;;;;;7.33;100.00;97245.25;109376;1251;63973;-71
2023/03/27 04:24:49;;;;;;;23.60;21.20;;;;;;;7.31;100.00;97250.19;109560;1251;58205;-70
2023/03/27 04:27:17;;;;;;;25.40;22.20;;;;;;;7.30;100.00;97252.16;109661;1251;58243;-71
2023/03/27 04:29:46;;;;;;;28.30;24.00;;;;;;;7.29;100.00;97249.98;109579;1250;63747;-72
2023/03/27 04:32:17;;;;;;;26.70;23.00;;;;;;;7.28;100.00;97244.95;109532;1251;59712;-71
2023/03/27 04:34:49;;;;;;;26.90;24.00;;;;;;;7.25;100.00;97247.09;109619;1251;64911;-72
2023/03/27 04:37:15;;;;;;;25.40;21.40;;;;;;;7.23;100.00;97246.93;109545;1250;58211;-71
2023/03/27 04:39:45;;;;;;;27.90;21.80;;;;;;;7.20;100.00;97246.26;109631;1251;58176;-71
2023/03/27 04:42:13;;;;;;;22.50;18.90;;;;;;;7.16;100.00;97246.73;109435;1251;66006;-71
2023/03/27 04:44:40;;;;;;;21.90;19.50;;;;;;;7.13;100.00;97246.09;109615;1251;59752;-71
2023/03/27 04:47:06;;;;;;;21.70;17.90;;;;;;;7.12;100.00;97248.30;109579;1251;64823;-71
2023/03/27 04:49:38;;;;;;;22.10;18.50;;;;;;;7.11;100.00;97245.25;109598;1251;59022;-70
2023/03/27 04:52:07;;;;;;;23.00;17.80;;;;;;;7.08;100.00;97249.34;109610;1250;58126;-70
2023/03/27 04:54:34;;;;;;;21.10;16.90;;;;;;;7.06;100.00;97255.33;109588;1251;66143;-71
2023/03/27 04:57:00;;;;;;;22.10;18.90;;;;;;;7.06;100.00;97256.77;109596;1250;59679;-71
2023/03/27 04:59:31;;;;;;;27.90;19.90;;;;;;;7.06;100.00;97253.41;109600;1251;58260;-71
2023/03/27 05:02:00;;;;;;;24.00;20.20;;;;;;;7.08;100.00;97250.77;109269;1251;58528;-72
2023/03/27 05:04:27;;;;;;;25.30;21.40;;;;;;;7.09;100.00;97246.45;109611;1251;58192;-71
2023/03/27 05:06:56;;;;;;;29.80;23.30;;;;;;;7.09;100.00;97244.12;109594;1251;65197;-71
2023/03/27 05:09:23;;;;;;;27.60;23.60;;;;;;;7.11;100.00;97244.15;109579;1253;60892;-71
2023/03/27 05:11:49;;;;;;;29.80;24.30;;;;;;;7.14;100.00;97240.73;109633;1251;64840;-72
2023/03/27 05:14:20;;;;;;;27.70;24.90;;;;;;;7.15;100.00;97239.40;109474;1252;58476;-72
2023/03/27 05:16:49;;;;;;;27.50;23.40;;;;;;;7.14;100.00;97237.92;109637;1251;58179;-72
2023/03/27 05:19:15;;;;;;;31.30;26.50;;;;;;;7.13;100.00;97242.04;109592;1251;66113;-71
2023/03/27 05:21:42;;;;;;;38.60;28.40;;;;;;;7.13;100.00;97253.36;109539;1251;60933;-72
2023/03/27 05:24:09;;;;;;;34.40;27.30;;;;;;;7.14;100.00;97258.44;109611;1251;65035;-72
2023/03/27 05:26:37;;;;;;;29.10;26.00;;;;;;;7.14;100.00;97259.27;109588;1251;58218;-72
2023/03/27 05:29:04;;;;;;;28.10;23.90;;;;;;;7.16;100.00;97258.77;109253;1250;58255;-71
2023/03/27 05:31:32;;;;;;;32.50;27.00;;;;;;;7.17;100.00;97259.56;109600;1251;65424;-72
2023/03/27 05:33:58;;;;;;;33.30;29.40;;;;;;;7.18;100.00;97262.14;109555;1251;67962;-72
2023/03/27 05:36:28;;;;;;;34.00;27.30;;;;;;;7.19;100.00;97256.61;109586;1250;59131;-72
2023/03/27 05:38:56;;;;;;;31.70;26.30;;;;;;;7.20;100.00;97257.91;109538;1250;59021;-72
2023/03/27 05:41:23;;;;;;;35.30;27.20;;;;;;;7.20;100.00;97258.80;109595;1251;59283;-72
2023/03/27 05:43:50;;;;;;;32.70;28.10;;;;;;;7.21;100.00;97260.52;109391;1251;67067;-71
2023/03/27 05:46:17;;;;;;;35.80;29.00;;;;;;;7.22;100.00;97261.98;109377;1251;60098;-71
2023/03/27 05:48:42;;;;;;;26.30;23.20;;;;;;;7.23;100.00;97263.66;109561;1251;63870;-71
2023/03/27 05:51:08;;;;;;;31.60;27.40;;;;;;;7.25;100.00;97264.55;109562;1251;59460;-71
2023/03/27 05:53:38;;;;;;;30.40;26.80;;;;;;;7.30;100.00;97267.41;109623;1251;59015;-71
2023/03/27 05:56:05;;;;;;;29.50;25.70;;;;;;;7.33;100.00;97270.09;109526;1251;65828;-71
2023/03/27 05:58:32;;;;;;;28.60;25.50;;;;;;;7.37;100.00;97273.36;109601;1250;59901;-71
2023/03/27 06:00:59;;;;;;;28.50;24.40;;;;;;;7.40;100.00;97274.85;109566;1251;59045;-71
2023/03/27 06:03:29;;;;;;;31.40;24.90;;;;;;;7.43;100.00;97273.33;109518;1251;59041;-72
2023/03/27 06:06:08;;;;;;;28.40;24.10;;;;;;;7.47;100.00;97276.70;109587;1251;59009;-71
2023/03/27 06:08:35;;;;;;;32.90;24.80;;;;;;;7.52;100.00;97282.36;109428;1251;67143;-71
2023/03/27 06:11:08;;;;;;;30.10;23.40;;;;;;;7.53;100.00;97285.77;109642;1251;59850;-71
2023/03/27 06:13:34;;;;;;;24.80;22.00;;;;;;;7.55;100.00;97288.63;109369;1251;63893;-71
2023/03/27 06:16:00;;;;;;;27.60;22.00;;;;;;;7.57;100.00;97291.27;109567;1251;59515;-71
2023/03/27 06:18:27;;;;;;;28.40;23.60;;;;;;;7.58;100.00;97287.88;109610;1251;59073;-71
2023/03/27 06:20:54;;;;;;;29.30;23.40;;;;;;;7.59;100.00;97291.63;109551;1251;59265;-71
2023/03/27 06:23:19;;;;;;;27.70;21.80;;;;;;;7.62;100.00;97293.04;109597;1251;59303;-71
2023/03/27 06:25:46;;;;;;;30.10;22.70;;;;;;;7.65;100.00;97296.41;109581;1251;59104;-71
2023/03/27 06:28:13;;;;;;;30.40;21.90;;;;;;;7.69;100.00;97301.64;109586;1251;59323;-70
2023/03/27 06:30:39;;;;;;;28.10;23.20;;;;;;;7.69;100.00;97304.05;109568;1251;59058;-71
2023/03/27 06:33:06;;;;;;;31.60;24.90;;;;;;;7.67;100.00;97309.36;109252;1254;59406;-71
2023/03/27 06:35:33;;;;;;;27.80;22.10;;;;;;;7.65;100.00;97316.59;109582;1251;59015;-70
2023/03/27 06:38:01;;;;;;;32.70;22.70;;;;;;;7.65;100.00;97317.85;109565;1251;59149;-70
2023/03/27 06:40:30;;;;;;;29.50;23.50;;;;;;;7.64;100.00;97321.09;109577;1251;58995;-70
2023/03/27 06:43:06;;;;;;;27.50;23.50;;;;;;;7.64;100.00;97321.09;109583;1251;58991;-70
2023/03/27 06:45:34;;;;;;;29.30;22.70;;;;;;;7.64;100.00;97326.91;109586;1251;66129;-70
2023/03/27 06:48:03;;;;;;;25.60;22.10;;;;;;;7.65;100.00;97330.21;109565;1250;60769;-70
2023/03/27 06:50:31;;;;;;;24.40;21.70;;;;;;;7.66;100.00;97327.48;109591;1251;65078;-70
2023/03/27 06:52:58;;;;;;;27.80;22.30;;;;;;;7.65;100.00;97332.66;109565;1251;59172;-70
2023/03/27 06:55:27;;;;;;;24.30;21.60;;;;;;;7.65;100.00;97337.47;109592;1251;59049;-70
2023/03/27 06:57:55;;;;;;;27.80;21.40;;;;;;;7.65;100.00;97335.85;109563;1251;66743;-70
2023/03/27 07:00:24;;;;;;;26.50;22.10;;;;;;;7.66;100.00;97337.71;109546;1251;59881;-71
2023/03/27 07:03:01;;;;;;;31.20;23.00;;;;;;;7.67;100.00;97337.83;109554;1251;65083;-70
2023/03/27 07:05:35;;;;;;;29.90;23.20;;;;;;;7.67;100.00;97342.09;109605;1251;58974;-70
2023/03/27 07:08:02;;;;;;;27.00;22.50;;;;;;;7.66;100.00;97346.41;109601;1251;58891;-70
2023/03/27 07:10:29;;;;;;;23.00;20.40;;;;;;;7.65;100.00;97347.94;109533;1254;65871;-70
2023/03/27 07:12:55;;;;;;;24.60;19.40;;;;;;;7.64;100.00;97346.94;109579;1251;59383;-70
2023/03/27 07:15:23;;;;;;;24.50;19.70;;;;;;;7.63;100.00;97351.06;109599;1251;59003;-70
2023/03/27 07:17:58;;;;;;;28.10;22.40;;;;;;;7.62;100.00;97352.95;109583;1251;59035;-70
2023/03/27 07:20:26;;;;;;;30.10;22.70;;;;;;;7.60;100.00;97362.13;109584;1251;59056;-69
2023/03/27 07:22:55;;;;;;;29.00;23.70;;;;;;;7.55;100.00;97365.30;109605;1251;67003;-69
2023/03/27 07:25:22;;;;;;;31.90;26.10;;;;;;;7.52;100.00;97363.86;109633;1251;60716;-69
2023/03/27 07:27:48;;;;;;;40.30;32.60;;;;;;;7.52;100.00;97365.80;109540;1250;63709;-70
2023/03/27 07:30:14;;;;;;;36.10;30.40;;;;;;;7.53;100.00;97370.29;109576;1251;58957;-70
2023/03/27 07:32:43;;;;;;;39.50;32.90;;;;;;;7.53;100.00;97373.66;109625;1251;59634;-69
2023/03/27 07:35:10;;;;;;;35.80;30.10;;;;;;;7.53;100.00;97373.08;109603;1251;67144;-70
2023/03/27 07:37:37;;;;;;;33.60;26.20;;;;;;;7.55;100.00;97375.77;109549;1251;61166;-70
2023/03/27 07:40:07;;;;;;;29.50;26.00;;;;;;;7.58;100.00;97373.62;109571;1251;64918;-70
2023/03/27 07:42:33;;;;;;;31.40;25.50;;;;;;;7.57;100.00;97378.74;109566;1255;59054;-70
2023/03/27 07:45:00;;;;;;;30.30;24.70;;;;;;;7.59;100.00;97380.92;109563;1251;58959;-70
2023/03/27 07:47:27;;;;;;;29.10;25.20;;;;;;;7.64;100.00;97383.02;109566;1251;65820;-70
2023/03/27 07:49:53;;;;;;;27.30;24.40;;;;;;;7.67;100.00;97384.33;109571;1251;59001;-71
2023/03/27 07:52:20;;;;;;;26.50;23.60;;;;;;;7.72;100.00;97386.77;109574;1250;59867;-71
2023/03/27 07:54:47;;;;;;;30.10;26.30;;;;;;;7.72;100.00;97386.02;109520;1251;58999;-70
2023/03/27 07:57:14;;;;;;;25.70;22.00;;;;;;;7.73;100.00;97384.77;109402;1251;59523;-70
2023/03/27 07:59:40;;;;;;;26.70;23.90;;;;;;;7.71;100.00;97386.67;109535;1251;65912;-70
2023/03/27 08:02:08;;;;;;;26.30;23.50;;;;;;;7.71;100.00;97388.44;109610;1251;59041;-82
2023/03/27 08:04:38;;;;;;;28.30;23.80;;;;;;;7.72;100.00;97392.10;109522;1251;63900;-74
2023/03/27 08:07:04;;;;;;;29.70;25.70;;;;;;;7.69;100.00;97392.98;109409;1251;59036;-79
2023/03/27 08:09:30;;;;;;;26.10;22.50;;;;;;;7.68;100.00;97393.65;109431;1256;59559;-74
2023/03/27 08:11:57;;;;;;;27.30;24.30;;;;;;;7.67;100.00;97394.42;109650;1251;59061;-76
2023/03/27 08:14:25;;;;;;;30.30;25.00;;;;;;;7.68;100.00;97392.00;109193;1259;59225;-75
2023/03/27 08:16:51;;;;;;;29.50;25.50;;;;;;;7.74;100.00;97397.03;109156;1256;62935;-75
2023/03/27 08:19:17;;;;;;;32.30;25.40;;;;;;;7.76;100.00;97399.54;109177;1258;59014;-74
2023/03/27 08:21:44;;;;;;;29.20;23.60;;;;;;;7.71;100.00;97400.65;109141;1257;59031;-74
2023/03/27 08:24:10;;;;;;;31.10;25.60;;;;;;;7.66;100.00;97404.35;109135;1257;59016;-75
2023/03/27 08:26:37;;;;;;;29.90;24.80;;;;;;;7.63;100.00;97405.52;109229;1257;59830;-75
2023/03/27 08:29:03;;;;;;;26.10;22.30;;;;;;;7.62;100.00;97413.87;109054;1257;59148;-74
2023/03/27 08:31:30;;;;;;;26.70;23.30;;;;;;;7.66;100.00;97411.08;109188;1256;59161;-75
2023/03/27 08:33:56;;;;;;;27.60;23.10;;;;;;;7.72;100.00;97405.47;109214;1257;59252;-75
2023/03/27 08:36:22;;;;;;;25.70;21.50;;;;;;;7.77;100.00;97412.35;109229;1256;59444;-75
2023/03/27 08:38:48;;;;;;;23.80;21.20;;;;;;;7.80;100.00;97416.86;109186;1255;59110;-75
2023/03/27 08:41:29;;;;;;;23.60;21.10;;;;;;;7.83;100.00;97409.02;108989;1257;59229;-75
2023/03/27 08:43:58;;;;;;;22.40;20.10;;;;;;;7.91;100.00;97411.23;109182;1257;59087;-75
2023/03/27 08:46:54;;;;;;;20.30;18.10;;;;;;;7.92;100.00;97413.45;109464;1254;58927;-75
2023/03/27 08:49:26;;;;;;;20.30;17.00;;;;;;;7.87;100.00;97418.02;109581;1251;66018;-75
2023/03/27 08:52:15;;;;;;;22.20;19.80;;;;;;;7.84;100.00;97422.55;109659;1251;59951;-75
2023/03/27 08:54:46;;;;;;;21.50;19.40;;;;;;;7.84;100.00;97425.19;109588;1250;65014;-75
2023/03/27 08:57:20;;;;;;;;;;;;;;;7.90;100.00;97429.69;109592;1251;58950;-77
2023/03/27 08:59:46;;;;;;;24.50;21.40;;;;;;;7.87;100.00;97435.70;109593;1251;59013;-76
2023/03/27 09:02:35;;;;;;;25.80;23.00;;;;;;;7.81;100.00;97437.48;109640;1251;59133;-76
2023/03/27 09:05:21;;;;;;;27.40;24.50;;;;;;;7.71;100.00;97438.48;109637;1251;60192;-76
2023/03/27 09:07:48;;;;;;;31.00;26.60;;;;;;;7.59;100.00;97437.13;109608;1251;65006;-77
2023/03/27 09:10:34;;;;;;;31.80;28.30;;;;;;;7.49;100.00;97440.94;109573;1251;58933;-76
2023/03/27 09:13:19;;;;;;;33.70;29.90;;;;;;;7.34;100.00;97441.73;109320;1251;59140;-76
2023/03/27 09:15:52;;;;;;;40.10;33.80;;;;;;;7.17;100.00;97449.23;109649;1251;66988;-76
2023/03/27 09:18:41;;;;;;;38.00;33.90;;;;;;;7.05;100.00;97454.56;109607;1251;59923;-75
2023/03/27 09:21:18;;;;;;;36.70;32.40;;;;;;;6.94;100.00;97458.63;108964;1259;64974;-77
2023/03/27 09:23:46;;;;;;;41.50;34.20;;;;;;;6.85;100.00;97453.86;108982;1259;59027;-76
2023/03/27 09:26:18;;;;;;;42.30;34.60;;;;;;;6.79;100.00;97451.46;108989;1259;59344;-75
2023/03/27 09:28:54;;;;;;;38.70;33.10;;;;;;;6.75;100.00;97464.33;108962;1260;67094;-75
2023/03/27 09:31:27;;;;;;;43.70;37.70;;;;;;;6.71;100.00;97466.60;108945;1259;59734;-76
2023/03/27 09:33:59;;;;;;;46.90;39.70;;;;;;;6.69;100.00;97473.75;108960;1260;63830;-76
2023/03/27 09:36:25;;;;;;;50.30;39.90;;;;;;;6.67;100.00;97477.81;108983;1260;59166;-75
2023/03/27 09:38:57;;;;;;;47.50;40.80;;;;;;;6.66;100.00;97483.55;108973;1259;59090;-77
2023/03/27 09:41:33;;;;;;;51.80;42.80;;;;;;;6.64;100.00;97489.33;108991;1259;67088;-75
2023/03/27 09:44:24;;;;;;;49.10;41.80;;;;;;;6.59;100.00;97492.70;108977;1258;61014;-76
2023/03/27 09:47:01;;;;;;;;;;;;;;;6.46;100.00;97504.79;108975;1260;65320;-76
2023/03/27 09:49:28;;;;;;;31.90;28.50;;;;;;;6.27;100.00;97516.20;108916;1259;59465;-78
2023/03/27 09:51:57;;;;;;;28.90;26.00;;;;;;;6.09;100.00;97523.35;108895;1260;59395;-80
2023/03/27 09:54:27;;;;;;;28.90;25.30;;;;;;;5.96;100.00;97530.42;108898;1260;66894;-83
2023/03/27 09:56:58;;;;;;;31.60;28.30;;;;;;;5.87;100.00;97538.48;108900;1260;61197;-76
2023/03/27 09:59:31;;;;;;;34.20;28.10;;;;;;;5.79;100.00;97539.06;109501;1250;63867;-77
2023/03/27 10:02:07;;;;;;;24.90;22.30;;;;;;;5.71;100.00;97551.60;109534;1251;58963;-78
2023/03/27 10:04:34;;;;;;;23.10;20.70;;;;;;;5.59;100.00;97564.05;109493;1251;59135;-91
2023/03/27 10:07:07;;;;;;;23.80;21.30;;;;;;;5.45;100.00;97568.21;109548;1251;66982;-79
2023/03/27 10:09:35;;;;;;;25.50;22.90;;;;;;;5.34;100.00;97566.51;109288;1254;60886;-87
2023/03/27 10:12:22;;;;;;;27.10;21.70;;;;;;;5.26;100.00;97569.66;109380;1254;64831;-82
2023/03/27 10:14:50;;;;;;;22.80;18.50;;;;;;;5.22;100.00;97586.33;109495;1253;58928;-70
2023/03/27 10:19:38;;;;;;;20.90;17.70;;;;;;;5.11;100.00;97591.45;103675;1291;599185;-75
2023/03/27 10:22:35;;;;;;;21.80;19.00;;;;;;;5.00;100.00;97600.61;105499;1266;59257;-71
2023/03/27 10:25:05;;;;;;;28.50;22.60;;;;;;;4.92;100.00;97610.84;104575;1276;59288;-71
2023/03/27 10:28:27;;;;;;;28.30;23.80;;;;;;;4.84;100.00;97613.52;104672;1269;62239;-72
2023/03/27 10:31:00;;;;;;;21.70;19.30;;;;;;;4.70;100.00;97618.98;104107;1277;60366;-71
2023/03/27 10:33:35;;;;;;;21.80;19.50;;;;;;;4.55;100.00;97626.27;104082;1276;297098;-71
2023/03/27 10:36:05;;;;;;;23.10;20.60;;;;;;;4.44;100.00;97629.30;104493;1276;59450;-72
2023/03/27 10:38:35;;;;;;;34.10;26.60;;;;;;;4.37;100.00;97633.92;104310;1275;59476;-72
2023/03/27 10:41:12;;;;;;;29.10;25.70;;;;;;;4.30;100.00;97642.86;104420;1277;65138;-73
2023/03/27 10:43:44;;;;;;;29.00;22.50;;;;;;;4.21;100.00;97650.98;104415;1278;60432;-71
2023/03/27 10:46:25;;;;;;;31.40;28.20;;;;;;;4.07;100.00;97653.22;104443;1273;66345;-73
2023/03/27 10:49:10;;;;;;;27.90;25.00;;;;;;;4.01;100.00;97658.75;104462;1278;59773;-72
2023/03/27 10:52:03;;;;;;;24.50;22.00;;;;;;;3.94;100.00;97667.73;104596;1270;59835;-72
2023/03/27 10:55:01;;;;;;;26.60;23.80;;;;;;;3.84;100.00;97674.52;104613;1275;64778;-72
2023/03/27 10:57:29;;;;;;;29.90;22.90;;;;;;;3.75;100.00;97681.91;104564;1274;60767;-71
2023/03/27 10:59:59;;;;;;;25.40;22.70;;;;;;;3.69;100.00;97690.89;104582;1272;66630;-71
2023/03/27 11:02:44;;;;;;;30.50;24.10;;;;;;;3.64;100.00;97692.21;104737;1271;60024;-73
2023/03/27 11:05:20;;;;;;;26.90;22.60;;;;;;;3.64;100.00;97694.16;104962;1265;59578;-74
2023/03/27 11:08:11;;;;;;;25.30;22.70;;;;;;;3.62;100.00;97699.38;105113;1272;65677;-72
2023/03/27 11:10:37;;;;;;;24.90;22.30;;;;;;;3.58;100.00;97696.64;105365;1263;60491;-73
2023/03/27 11:13:22;;;;;;;23.50;21.20;;;;;;;3.54;100.00;97716.05;105346;1260;59571;-73
2023/03/27 11:16:00;;;;;;;24.30;21.70;;;;;;;3.51;100.00;97728.13;105152;1266;59841;-73
2023/03/27 11:18:39;;;;;;;22.40;20.20;;;;;;;3.51;100.00;97733.36;105340;1265;60549;-74
2023/03/27 11:21:11;;;;;;;23.20;20.40;;;;;;;3.51;100.00;97746.38;105390;1266;66178;-73
2023/03/27 11:23:45;;;;;;;21.50;19.30;;;;;;;3.50;100.00;97754.14;105350;1264;61775;-73
2023/03/27 11:26:15;;;;;;;20.10;16.50;;;;;;;3.52;100.00;97758.95;105339;1264;65869;-72
2023/03/27 11:28:47;;;;;;;24.00;20.60;;;;;;;3.50;100.00;97763.83;105391;1265;59575;-75
2023/03/27 11:31:36;;;;;;;19.80;18.00;;;;;;;3.49;100.00;97779.35;105275;1263;59622;-73
2023/03/27 11:34:15;;;;;;;19.40;17.60;;;;;;;3.49;100.00;97787.77;105334;1266;65779;-75